Time;durP1;ratioP1;P1;durP2;ratioP2;P2;SDS_P1;SDS_P2;PMS_P1;PMS_P2;Temp;Humidity;BMP_temperature;BMP_pressure;BME280_temperature;BME280_humidity;BME280_pressure;Samples;Min_cycle;Max_cycle;Signal;HPM_P1;HPM_P2
2023/02/13 00:00:12;;;;;;;16.15;8.18;;;0.60;99.90;;;;;;4985479;28;20046;-81
2023/02/13 00:02:38;;;;;;;17.50;8.95;;;0.70;99.90;;;;;;4982706;28;20042;-81
2023/02/13 00:05:03;;;;;;;18.55;8.48;;;0.70;99.90;;;;;;4986230;28;20030;-81
2023/02/13 00:07:29;;;;;;;24.10;9.00;;;0.80;99.90;;;;;;4985326;28;20062;-83
2023/02/13 00:09:55;;;;;;;27.80;8.00;;;0.80;99.90;;;;;;4981633;28;20535;-82
2023/02/13 00:12:20;;;;;;;15.85;7.28;;;0.80;99.90;;;;;;4989759;28;20058;-84
2023/02/13 00:14:46;;;;;;;14.13;7.07;;;0.80;99.90;;;;;;4990618;28;20057;-81
2023/02/13 00:17:11;;;;;;;19.13;8.73;;;0.80;99.90;;;;;;4989031;28;20467;-81
2023/02/13 00:19:37;;;;;;;15.07;8.13;;;0.80;99.90;;;;;;4987945;28;20189;-81
2023/02/13 00:22:02;;;;;;;22.73;8.50;;;0.80;99.90;;;;;;4990000;28;20035;-80
2023/02/13 00:24:28;;;;;;;15.88;8.25;;;0.80;99.90;;;;;;4988985;28;20038;-80
2023/02/13 00:26:54;;;;;;;15.38;7.70;;;0.80;99.90;;;;;;4984441;28;20061;-81
2023/02/13 00:29:19;;;;;;;33.38;8.30;;;0.80;99.90;;;;;;4982652;28;20399;-81
2023/02/13 00:31:45;;;;;;;17.58;7.53;;;0.80;99.90;;;;;;4989481;28;20052;-81
2023/02/13 00:34:10;;;;;;;57.97;9.48;;;0.90;99.90;;;;;;4995085;28;20092;-82
2023/02/13 00:36:36;;;;;;;28.10;7.65;;;0.80;99.90;;;;;;4989444;28;20027;-81
2023/02/13 00:39:02;;;;;;;15.55;8.55;;;0.80;99.90;;;;;;4981094;28;20038;-81
2023/02/13 00:41:27;;;;;;;15.60;8.27;;;0.80;99.90;;;;;;4990368;28;20081;-81
2023/02/13 00:43:53;;;;;;;18.52;9.70;;;0.80;99.90;;;;;;5003248;28;20049;-81
2023/02/13 00:46:19;;;;;;;33.03;8.68;;;0.80;99.90;;;;;;4982152;28;20035;-81
2023/02/13 00:48:45;;;;;;;17.52;7.90;;;0.80;99.90;;;;;;4987917;28;20390;-81
2023/02/13 00:51:11;;;;;;;18.98;8.93;;;0.80;99.90;;;;;;4987328;28;20026;-81
2023/02/13 00:53:37;;;;;;;18.80;8.52;;;0.80;99.90;;;;;;4991967;28;20061;-81
2023/02/13 00:56:05;;;;;;;15.00;8.07;;;0.80;99.90;;;;;;4984456;28;20062;-80
2023/02/13 00:58:31;;;;;;;19.83;9.30;;;0.80;99.90;;;;;;4984746;28;20011;-81
2023/02/13 01:00:56;;;;;;;20.08;8.48;;;0.80;99.90;;;;;;4991301;28;20045;-81
2023/02/13 01:03:23;;;;;;;23.85;8.52;;;0.80;99.90;;;;;;4982482;28;20109;-81
2023/02/13 01:05:49;;;;;;;15.00;7.57;;;0.80;99.90;;;;;;4975964;28;20038;-82
2023/02/13 01:08:16;;;;;;;12.05;7.97;;;0.90;99.90;;;;;;4980198;28;20038;-83
2023/02/13 01:10:44;;;;;;;14.70;6.80;;;0.90;99.90;;;;;;4988385;28;20407;-82
2023/02/13 01:13:10;;;;;;;22.75;7.60;;;0.90;99.90;;;;;;4994876;28;20030;-81
2023/02/13 01:15:37;;;;;;;13.30;7.63;;;0.90;99.90;;;;;;4983312;28;20070;-81
2023/02/13 01:18:03;;;;;;;28.73;8.80;;;0.90;99.90;;;;;;4984963;28;20045;-81
2023/02/13 01:20:29;;;;;;;20.55;6.60;;;0.90;99.90;;;;;;4983081;28;20042;-81
2023/02/13 01:22:55;;;;;;;15.40;7.57;;;0.90;99.90;;;;;;4988406;28;20035;-81
2023/02/13 01:25:21;;;;;;;14.00;7.97;;;0.90;99.90;;;;;;4982306;28;20055;-81
2023/02/13 01:27:46;;;;;;;14.60;7.90;;;0.90;99.90;;;;;;4986004;28;20022;-81
2023/02/13 01:30:14;;;;;;;15.43;7.30;;;0.90;99.90;;;;;;4985916;28;20038;-82
2023/02/13 01:32:41;;;;;;;18.70;8.07;;;1.00;99.90;;;;;;4984301;28;20034;-81
2023/02/13 01:35:07;;;;;;;13.60;7.72;;;0.90;99.90;;;;;;4997562;28;20054;-81
2023/02/13 01:37:33;;;;;;;18.02;9.20;;;1.00;99.90;;;;;;4984452;28;20109;-81
2023/02/13 01:39:59;;;;;;;15.43;7.25;;;1.00;99.90;;;;;;4981366;28;20423;-81
2023/02/13 01:42:36;;;;;;;28.67;8.95;;;1.00;99.90;;;;;;4986450;28;20105;-85
2023/02/13 01:45:16;;;;;;;18.88;9.48;;;1.00;99.90;;;;;;4981100;28;20375;-81
2023/02/13 01:47:46;;;;;;;26.17;9.27;;;1.00;99.90;;;;;;4982426;28;20030;-81
2023/02/13 01:50:34;;;;;;;22.92;9.40;;;1.00;99.90;;;;;;5006490;28;20031;-81
2023/02/13 01:53:10;;;;;;;21.20;8.65;;;1.00;99.90;;;;;;4990383;28;20035;-81
2023/02/13 01:55:42;;;;;;;20.08;8.65;;;0.90;99.90;;;;;;5010187;28;20023;-81
2023/02/13 01:58:11;;;;;;;16.58;7.47;;;0.90;99.90;;;;;;4987167;28;20424;-81
2023/02/13 02:00:38;;;;;;;19.65;8.10;;;0.90;99.90;;;;;;4977328;28;20043;-86
2023/02/13 02:03:12;;;;;;;26.33;11.00;;;0.90;99.90;;;;;;5010383;28;20066;-86
2023/02/13 02:05:38;;;;;;;18.52;8.32;;;0.90;99.90;;;;;;5006694;28;20046;-86
2023/02/13 02:08:06;;;;;;;20.13;9.10;;;0.90;99.90;;;;;;4984291;28;20031;-85
2023/02/13 02:10:33;;;;;;;19.25;8.73;;;1.00;99.90;;;;;;4997166;28;20053;-85
2023/02/13 02:13:06;;;;;;;18.70;7.35;;;0.90;99.90;;;;;;4982328;28;20031;-85
2023/02/13 02:15:32;;;;;;;27.88;10.07;;;0.90;99.90;;;;;;4993904;28;20034;-85
2023/02/13 02:17:57;;;;;;;29.75;9.60;;;0.90;99.90;;;;;;4979320;28;20054;-85
2023/02/13 02:20:54;;;;;;;32.33;11.73;;;0.90;99.90;;;;;;4987969;28;20033;-85
2023/02/13 02:23:26;;;;;;;23.60;9.60;;;0.80;99.90;;;;;;4982082;28;20101;-85
2023/02/13 02:26:16;;;;;;;39.80;9.02;;;0.80;99.90;;;;;;4983740;28;20026;-85
2023/02/13 02:29:01;;;;;;;25.35;9.00;;;0.80;99.90;;;;;;5006630;28;20459;-85
2023/02/13 02:32:01;;;;;;;17.85;7.53;;;0.70;99.90;;;;;;4985873;28;20046;-85
2023/02/13 02:34:38;;;;;;;36.85;8.55;;;0.80;99.90;;;;;;4980046;28;20058;-85
2023/02/13 02:37:12;;;;;;;18.77;8.93;;;0.80;99.90;;;;;;4978963;28;20085;-85
2023/02/13 02:39:38;;;;;;;22.08;9.45;;;0.80;99.90;;;;;;4988849;28;20046;-85
2023/02/13 02:42:19;;;;;;;24.73;10.38;;;0.70;99.90;;;;;;5001399;28;20089;-84
2023/02/13 02:45:13;;;;;;;21.88;8.85;;;0.70;99.90;;;;;;5013600;28;20041;-84
2023/02/13 02:51:00;;;;;;;27.02;9.70;;;0.70;99.90;;;;;;4980475;28;20042;-85
2023/02/13 02:53:43;;;;;;;22.02;9.90;;;0.80;99.90;;;;;;4982634;28;20034;-84
2023/02/13 02:56:39;;;;;;;15.60;7.57;;;0.80;99.90;;;;;;4977818;28;20054;-85
2023/02/13 03:07:34;;;;;;;19.42;9.30;;;0.80;99.90;;;;;;4981126;28;20066;-86
2023/02/13 03:13:20;;;;;;;15.90;7.40;;;0.90;99.90;;;;;;4981755;28;20065;-85
2023/02/13 03:24:57;;;;;;;12.82;6.70;;;0.90;99.90;;;;;;4989241;28;20060;-85
2023/02/13 03:30:50;;;;;;;18.13;8.18;;;0.90;99.90;;;;;;4985710;28;20046;-85
2023/02/13 03:33:39;;;;;;;12.13;7.20;;;1.00;99.90;;;;;;4972717;28;20043;-85
2023/02/13 03:39:22;;;;;;;15.18;7.70;;;1.00;99.90;;;;;;4986250;28;20050;-86
2023/02/13 03:42:03;;;;;;;13.75;6.80;;;1.00;99.90;;;;;;4978946;28;20109;-85
2023/02/13 03:44:45;;;;;;;15.52;7.28;;;1.10;99.90;;;;;;4990403;28;20027;-85
2023/02/13 03:47:13;;;;;;;15.98;7.43;;;1.10;99.90;;;;;;4983163;28;20025;-87
2023/02/13 03:50:06;;;;;;;13.32;7.55;;;1.10;99.90;;;;;;4980661;28;20050;-86
2023/02/13 03:52:40;;;;;;;12.48;5.82;;;1.00;99.90;;;;;;4979717;28;20047;-85
2023/02/13 04:00:54;;;;;;;18.70;8.23;;;1.10;99.90;;;;;;4982732;28;20070;-86
2023/02/13 04:03:32;;;;;;;13.50;7.13;;;1.00;99.90;;;;;;4980329;28;20039;-85
2023/02/13 04:06:28;;;;;;;11.63;7.03;;;1.10;99.90;;;;;;4981317;28;20059;-85
2023/02/13 04:08:53;;;;;;;10.52;6.63;;;1.00;99.90;;;;;;5002510;28;20041;-84
2023/02/13 04:11:22;;;;;;;13.50;6.78;;;1.10;99.90;;;;;;4987002;28;20058;-85
2023/02/13 04:13:55;;;;;;;16.83;8.73;;;1.20;99.90;;;;;;4987818;28;20082;-85
2023/02/13 04:16:29;;;;;;;16.90;7.72;;;1.20;99.90;;;;;;4978921;28;20450;-86
2023/02/13 04:18:56;;;;;;;15.52;8.07;;;1.30;99.90;;;;;;4984600;28;20333;-86
2023/02/13 04:21:21;;;;;;;15.70;7.50;;;1.30;99.90;;;;;;4978347;28;20065;-86
2023/02/13 04:23:47;;;;;;;18.65;8.45;;;1.40;99.90;;;;;;4989626;28;20019;-86
2023/02/13 04:26:17;;;;;;;15.52;7.88;;;1.40;99.90;;;;;;4987420;28;20085;-85
2023/02/13 04:28:43;;;;;;;15.95;8.32;;;1.40;99.90;;;;;;4981873;28;20035;-85
2023/02/13 04:31:08;;;;;;;15.75;7.78;;;1.40;99.90;;;;;;4986015;28;20046;-85
2023/02/13 04:33:34;;;;;;;16.83;8.43;;;1.50;99.90;;;;;;4988961;28;20527;-85
2023/02/13 04:36:00;;;;;;;16.95;7.95;;;1.40;99.90;;;;;;4986592;28;20053;-85
2023/02/13 04:38:25;;;;;;;22.15;8.45;;;1.50;99.90;;;;;;4988319;28;20034;-86
2023/02/13 04:40:51;;;;;;;17.30;8.18;;;1.50;99.90;;;;;;4992409;28;20061;-85
2023/02/13 04:43:16;;;;;;;16.48;8.10;;;1.50;99.90;;;;;;4989049;28;20019;-85
2023/02/13 04:45:42;;;;;;;15.80;8.30;;;1.50;99.90;;;;;;4988183;28;20049;-86
2023/02/13 04:48:08;;;;;;;17.42;8.18;;;1.50;99.90;;;;;;5000795;28;20030;-86
2023/02/13 04:50:33;;;;;;;17.60;8.45;;;1.60;99.90;;;;;;4986891;28;20878;-85
2023/02/13 04:52:59;;;;;;;14.68;8.10;;;1.50;99.90;;;;;;4975734;28;20035;-86
2023/02/13 04:55:26;;;;;;;17.20;7.72;;;1.40;99.90;;;;;;4988130;28;20019;-86
2023/02/13 04:57:55;;;;;;;18.95;9.07;;;1.50;99.90;;;;;;4993772;28;20038;-85
2023/02/13 05:00:26;;;;;;;16.15;8.13;;;1.50;99.90;;;;;;4985760;28;20045;-86
2023/02/13 05:02:52;;;;;;;18.88;7.13;;;1.40;99.90;;;;;;4979857;28;20030;-86
2023/02/13 05:05:18;;;;;;;17.73;8.60;;;1.40;99.90;;;;;;4979974;28;20041;-85
2023/02/13 05:07:44;;;;;;;16.77;9.18;;;1.40;99.90;;;;;;4975720;28;20034;-85
2023/02/13 05:10:11;;;;;;;37.03;14.70;;;1.40;99.90;;;;;;4981668;28;20061;-85
2023/02/13 05:12:37;;;;;;;24.58;10.40;;;1.40;99.90;;;;;;4981276;28;20043;-86
2023/02/13 05:15:03;;;;;;;16.10;8.70;;;1.30;99.90;;;;;;4984247;28;20034;-85
2023/02/13 05:17:29;;;;;;;15.77;7.85;;;1.30;99.90;;;;;;4981340;28;20074;-85
2023/02/13 05:19:55;;;;;;;26.40;10.95;;;1.20;99.90;;;;;;4983691;28;20035;-85
2023/02/13 05:25:05;;;;;;;14.80;7.97;;;1.20;99.90;;;;;;4985867;28;20061;-86
2023/02/13 05:27:30;;;;;;;36.65;16.38;;;1.10;99.90;;;;;;4992845;28;20035;-86
2023/02/13 05:29:56;;;;;;;18.70;8.55;;;1.20;99.90;;;;;;4984266;28;20037;-86
2023/02/13 05:32:22;;;;;;;21.40;9.55;;;1.20;99.90;;;;;;4983326;28;20039;-85
2023/02/13 05:34:47;;;;;;;16.60;8.95;;;1.20;99.90;;;;;;4976136;28;20046;-85
2023/02/13 05:37:13;;;;;;;18.48;7.20;;;1.20;99.90;;;;;;4980178;28;20022;-85
2023/02/13 05:39:38;;;;;;;30.92;11.88;;;1.10;99.90;;;;;;4980954;28;20507;-86
2023/02/13 05:42:04;;;;;;;13.75;7.97;;;1.10;99.90;;;;;;4982151;28;20038;-86
2023/02/13 05:44:30;;;;;;;16.27;7.22;;;1.10;99.90;;;;;;4988923;28;20042;-84
2023/02/13 05:46:56;;;;;;;22.70;10.05;;;1.10;99.90;;;;;;4981903;28;20022;-85
2023/02/13 05:49:22;;;;;;;28.67;11.45;;;1.20;99.90;;;;;;4978852;28;20085;-83
2023/02/13 05:51:50;;;;;;;22.05;9.50;;;1.20;99.90;;;;;;4979276;28;20118;-85
2023/02/13 05:54:17;;;;;;;29.38;11.25;;;1.30;99.90;;;;;;4984045;28;20027;-84
2023/02/13 05:56:43;;;;;;;15.18;7.55;;;1.30;99.90;;;;;;4984503;28;20043;-85
2023/02/13 05:59:08;;;;;;;18.35;7.72;;;1.20;99.90;;;;;;4980375;28;20042;-84
2023/02/13 06:01:34;;;;;;;14.40;6.13;;;1.10;99.90;;;;;;4983885;28;20038;-84
2023/02/13 06:04:00;;;;;;;15.70;8.35;;;1.10;99.90;;;;;;4986264;28;20110;-84
2023/02/13 06:06:25;;;;;;;14.43;7.53;;;1.10;99.90;;;;;;4988084;28;20031;-83
2023/02/13 06:08:51;;;;;;;14.27;7.07;;;1.10;99.90;;;;;;4982965;28;20038;-84
2023/02/13 06:11:17;;;;;;;17.83;7.72;;;1.10;99.90;;;;;;4986768;28;20052;-84
2023/02/13 06:13:43;;;;;;;18.35;7.97;;;1.10;99.90;;;;;;4984198;28;20023;-84
2023/02/13 06:16:11;;;;;;;19.20;9.63;;;1.10;99.90;;;;;;4983121;28;20034;-84
2023/02/13 06:18:38;;;;;;;20.95;7.82;;;1.10;99.90;;;;;;4991744;28;20063;-84
2023/02/13 06:21:04;;;;;;;13.23;6.57;;;1.00;99.90;;;;;;4988680;28;20494;-83
2023/02/13 06:23:31;;;;;;;17.00;7.60;;;1.00;99.90;;;;;;4986397;28;20033;-84
2023/02/13 06:26:01;;;;;;;15.65;7.47;;;1.00;99.90;;;;;;4990892;28;20043;-85
2023/02/13 06:28:27;;;;;;;15.00;8.30;;;0.90;99.90;;;;;;4984995;28;20031;-84
2023/02/13 06:30:52;;;;;;;15.77;8.27;;;1.00;99.90;;;;;;4985171;28;20049;-83
2023/02/13 06:33:18;;;;;;;16.90;7.85;;;0.90;99.90;;;;;;4984034;28;20070;-84
2023/02/13 06:35:44;;;;;;;17.80;8.65;;;0.90;99.90;;;;;;4993652;28;20031;-84
2023/02/13 06:38:09;;;;;;;19.05;8.43;;;1.00;99.90;;;;;;4981306;28;20035;-84
2023/02/13 06:40:35;;;;;;;16.52;8.18;;;1.00;99.90;;;;;;4976043;28;20049;-84
2023/02/13 06:43:00;;;;;;;19.00;8.50;;;1.00;99.90;;;;;;5011734;28;20039;-83
2023/02/13 06:45:26;;;;;;;18.85;8.07;;;1.00;99.90;;;;;;4990981;28;20030;-84
2023/02/13 06:47:51;;;;;;;16.80;8.57;;;1.00;99.90;;;;;;4991047;28;20861;-84
2023/02/13 06:50:17;;;;;;;16.52;8.18;;;1.00;99.90;;;;;;4978238;28;20034;-84
2023/02/13 06:52:48;;;;;;;13.38;6.85;;;1.00;99.90;;;;;;4988618;28;20030;-84
2023/02/13 06:55:14;;;;;;;16.30;7.20;;;1.00;99.90;;;;;;4982291;28;20093;-84
2023/02/13 06:57:41;;;;;;;17.50;8.45;;;1.10;99.90;;;;;;5005347;28;20039;-83
2023/02/13 07:00:07;;;;;;;26.73;8.23;;;1.00;99.90;;;;;;4982583;28;20034;-83
2023/02/13 07:02:33;;;;;;;21.13;8.65;;;1.00;99.90;;;;;;4985541;28;20050;-85
2023/02/13 07:04:59;;;;;;;18.08;7.85;;;1.00;99.90;;;;;;4991616;28;20041;-85
2023/02/13 07:07:24;;;;;;;16.92;6.90;;;1.00;99.90;;;;;;4983467;28;20091;-86
2023/02/13 07:09:50;;;;;;;17.92;8.48;;;0.90;99.90;;;;;;4982517;28;20145;-83
2023/02/13 07:12:15;;;;;;;17.05;8.02;;;0.90;99.90;;;;;;4979849;28;20071;-83
2023/02/13 07:14:41;;;;;;;19.95;7.82;;;0.90;99.90;;;;;;4976029;28;20031;-82
2023/02/13 07:17:07;;;;;;;14.88;7.10;;;1.00;99.90;;;;;;4983845;28;20029;-82
2023/02/13 07:19:32;;;;;;;13.73;7.10;;;1.00;99.90;;;;;;4969730;28;20052;-83
2023/02/13 07:21:58;;;;;;;16.48;7.80;;;1.00;99.90;;;;;;4980909;28;20043;-82
2023/02/13 07:24:23;;;;;;;17.75;8.05;;;1.00;99.90;;;;;;4986634;28;20081;-83
2023/02/13 07:26:49;;;;;;;22.65;11.27;;;1.00;99.90;;;;;;4981299;28;20057;-82
2023/02/13 07:29:15;;;;;;;27.10;13.52;;;1.00;99.90;;;;;;4995953;28;20056;-83
2023/02/13 07:31:40;;;;;;;22.00;8.95;;;1.00;99.90;;;;;;4981537;28;20057;-83
2023/02/13 07:34:06;;;;;;;17.17;7.63;;;1.00;99.90;;;;;;4983399;28;20486;-83
2023/02/13 07:36:32;;;;;;;17.45;8.18;;;1.00;99.90;;;;;;4976968;28;20035;-83
2023/02/13 07:38:58;;;;;;;16.20;7.18;;;1.00;99.90;;;;;;4969941;28;20038;-83
2023/02/13 07:41:26;;;;;;;16.52;8.00;;;1.00;99.90;;;;;;4963407;28;20101;-83
2023/02/13 07:43:52;;;;;;;20.88;8.00;;;1.00;99.90;;;;;;4974468;28;20395;-83
2023/02/13 07:46:18;;;;;;;15.65;6.72;;;1.00;99.90;;;;;;4992860;28;20074;-84
2023/02/13 07:48:44;;;;;;;17.10;6.88;;;1.10;99.90;;;;;;4981060;28;20038;-83
2023/02/13 07:51:09;;;;;;;20.33;9.02;;;1.10;99.90;;;;;;4972195;28;20054;-83
2023/02/13 07:53:35;;;;;;;19.83;9.27;;;1.10;99.90;;;;;;4979976;28;20471;-83
2023/02/13 07:56:08;;;;;;;18.15;7.63;;;1.10;99.90;;;;;;4987997;28;20022;-83
2023/02/13 07:58:35;;;;;;;12.85;6.65;;;1.10;99.90;;;;;;5002556;28;20476;-83
2023/02/13 08:01:11;;;;;;;16.33;8.18;;;1.10;99.90;;;;;;4978368;28;20800;-84
2023/02/13 08:03:37;;;;;;;15.25;7.32;;;1.10;99.90;;;;;;5017599;28;20026;-84
2023/02/13 08:06:04;;;;;;;17.08;8.75;;;1.10;99.90;;;;;;4986549;28;20031;-84
2023/02/13 08:08:29;;;;;;;12.98;6.68;;;1.10;99.90;;;;;;5006840;28;20027;-84
2023/02/13 08:13:41;;;;;;;14.93;7.50;;;1.20;99.90;;;;;;4971441;28;20141;-84
2023/02/13 08:16:06;;;;;;;20.90;8.32;;;1.20;99.90;;;;;;4985707;28;20027;-85
2023/02/13 08:18:32;;;;;;;24.13;9.38;;;1.20;99.90;;;;;;4982266;28;20026;-84
2023/02/13 08:20:57;;;;;;;18.75;7.82;;;1.20;99.90;;;;;;4987670;28;20049;-85
2023/02/13 08:23:23;;;;;;;18.95;7.38;;;1.20;99.90;;;;;;4989141;28;20058;-85
2023/02/13 08:25:48;;;;;;;19.10;7.97;;;1.20;99.90;;;;;;4989195;28;20142;-85
2023/02/13 08:28:15;;;;;;;11.48;6.85;;;1.20;99.90;;;;;;4992344;28;20038;-85
2023/02/13 08:30:41;;;;;;;16.95;7.40;;;1.20;99.90;;;;;;4984287;28;20034;-85
2023/02/13 08:33:07;;;;;;;15.93;8.38;;;1.30;99.90;;;;;;4987106;28;20042;-85
2023/02/13 08:35:32;;;;;;;18.05;7.68;;;1.30;99.90;;;;;;5009962;28;20031;-85
2023/02/13 08:38:03;;;;;;;21.02;8.40;;;1.40;99.90;;;;;;4985748;28;20184;-85
2023/02/13 08:40:28;;;;;;;19.55;8.95;;;1.40;99.90;;;;;;5001767;28;20045;-86
2023/02/13 08:43:04;;;;;;;18.00;8.50;;;1.30;99.90;;;;;;4995447;28;20113;-86
2023/02/13 08:45:32;;;;;;;14.88;7.50;;;1.40;99.90;;;;;;4991169;28;20043;-85
2023/02/13 08:47:58;;;;;;;16.98;8.30;;;1.40;99.90;;;;;;4986751;28;20031;-85
2023/02/13 08:50:25;;;;;;;17.50;7.43;;;1.40;99.90;;;;;;4997459;28;20039;-85
2023/02/13 08:52:51;;;;;;;17.30;7.95;;;1.40;99.90;;;;;;4985674;28;20061;-86
2023/02/13 08:55:17;;;;;;;21.83;9.23;;;1.50;99.90;;;;;;4990310;28;20046;-87
2023/02/13 08:57:42;;;;;;;15.45;7.78;;;1.40;99.90;;;;;;4998321;28;20038;-86
2023/02/13 09:00:08;;;;;;;16.17;8.32;;;1.50;99.90;;;;;;4971662;28;20034;-89
2023/02/13 09:02:34;;;;;;;18.25;8.60;;;1.50;99.90;;;;;;4982673;28;20043;-89
2023/02/13 09:05:00;;;;;;;21.20;9.35;;;1.50;99.90;;;;;;4982337;28;20115;-87
2023/02/13 09:07:25;;;;;;;19.13;8.45;;;1.50;99.90;;;;;;4981149;28;20437;-88
2023/02/13 09:09:51;;;;;;;16.58;8.48;;;1.50;99.90;;;;;;4982282;28;20057;-89
2023/02/13 09:12:17;;;;;;;14.93;7.43;;;1.60;99.90;;;;;;4996375;28;20026;-88
2023/02/13 09:14:43;;;;;;;16.60;7.88;;;1.60;99.90;;;;;;4988591;28;20110;-88
2023/02/13 09:17:08;;;;;;;19.58;8.48;;;1.70;99.90;;;;;;4983406;28;20034;-89
2023/02/13 09:19:34;;;;;;;15.80;7.22;;;1.70;99.90;;;;;;4985455;28;20035;-89
2023/02/13 09:22:00;;;;;;;17.63;7.88;;;1.70;99.90;;;;;;4988539;28;20038;-89
2023/02/13 09:24:25;;;;;;;17.77;7.95;;;1.80;99.90;;;;;;5004211;28;20034;-87
2023/02/13 09:26:51;;;;;;;13.75;7.45;;;1.80;99.90;;;;;;5000539;28;20034;-88
2023/02/13 09:29:17;;;;;;;17.55;8.50;;;1.90;99.90;;;;;;4992526;28;20419;-90
2023/02/13 09:31:42;;;;;;;18.77;8.13;;;2.00;99.90;;;;;;4987078;28;20089;-89
2023/02/13 09:34:08;;;;;;;13.77;7.22;;;2.00;99.90;;;;;;4992790;28;20027;-89
2023/02/13 09:36:35;;;;;;;15.55;7.72;;;2.00;99.90;;;;;;4982195;28;20038;-91
2023/02/13 09:39:01;;;;;;;22.08;8.48;;;1.90;99.90;;;;;;4987382;28;20038;-90
2023/02/13 09:41:40;;;;;;;13.30;6.47;;;2.00;99.90;;;;;;4988924;28;20031;-88
2023/02/13 09:44:32;;;;;;;15.75;10.55;;;2.00;99.90;;;;;;4986580;28;20522;-90
2023/02/13 09:47:03;;;;;;;16.15;8.48;;;2.00;99.90;;;;;;4980388;28;20041;-89
2023/02/13 09:49:35;;;;;;;16.08;7.20;;;2.10;99.90;;;;;;5002820;28;20038;-90
2023/02/13 09:52:01;;;;;;;47.22;27.90;;;2.10;99.90;;;;;;4992716;28;20038;-89
2023/02/13 09:54:30;;;;;;;50.78;30.92;;;2.10;99.90;;;;;;5001722;28;20521;-89
2023/02/13 09:57:06;;;;;;;16.55;8.82;;;2.20;99.90;;;;;;4990265;28;20041;-90
2023/02/13 10:00:10;;;;;;;21.30;11.82;;;2.10;99.90;;;;;;4981766;28;20655;-91
2023/02/13 10:02:48;;;;;;;19.13;10.82;;;2.00;99.90;;;;;;4984660;28;20069;-91
2023/02/13 10:05:32;;;;;;;26.63;17.17;;;2.00;99.90;;;;;;5004752;28;20069;-91
2023/02/13 10:08:46;;;;;;;15.40;8.88;;;2.10;99.90;;;;;;4987442;28;20042;-89
2023/02/13 10:11:35;;;;;;;14.98;7.78;;;2.10;99.90;;;;;;4975014;28;20046;-89
2023/02/13 10:14:46;;;;;;;15.07;7.78;;;2.20;99.90;;;;;;4982530;28;20106;-89
2023/02/13 10:17:31;;;;;;;15.23;7.65;;;2.20;99.90;;;;;;4989255;28;20031;-89
2023/02/13 10:20:03;;;;;;;11.90;6.68;;;2.10;99.90;;;;;;4991583;28;20027;-87
2023/02/13 10:22:46;;;;;;;11.25;6.65;;;2.00;99.90;;;;;;4981681;28;20043;-88
2023/02/13 10:25:18;;;;;;;15.93;7.90;;;2.10;99.90;;;;;;4982432;28;20101;-87
2023/02/13 10:27:49;;;;;;;15.68;7.72;;;2.20;99.90;;;;;;4978326;28;20035;-88
2023/02/13 10:30:32;;;;;;;18.20;8.50;;;2.20;99.90;;;;;;4992092;28;20030;-88
2023/02/13 10:33:18;;;;;;;16.98;7.50;;;2.20;99.90;;;;;;4980358;28;20074;-86
2023/02/13 10:36:10;;;;;;;19.48;8.23;;;2.20;99.90;;;;;;4976977;28;20056;-87
2023/02/13 10:38:44;;;;;;;16.63;7.68;;;2.30;99.90;;;;;;4998969;28;20046;-87
2023/02/13 10:41:36;;;;;;;15.20;7.97;;;2.30;99.90;;;;;;4979122;28;20043;-89
2023/02/13 10:44:09;;;;;;;16.08;8.60;;;2.30;99.90;;;;;;4977447;28;20039;-87
2023/02/13 10:46:53;;;;;;;20.75;9.60;;;2.30;99.90;;;;;;4981473;28;20554;-87
2023/02/13 10:49:46;;;;;;;18.77;9.43;;;2.30;99.90;;;;;;4979758;28;20046;-87
2023/02/13 10:52:38;;;;;;;15.20;7.15;;;2.20;99.90;;;;;;4973095;28;20035;-87
2023/02/13 10:55:21;;;;;;;16.02;7.93;;;2.30;99.90;;;;;;4975698;28;20028;-87
2023/02/13 10:58:01;;;;;;;16.95;7.72;;;2.30;99.90;;;;;;4981463;28;20022;-88
2023/02/13 11:00:43;;;;;;;17.23;9.25;;;2.20;99.90;;;;;;4976392;28;20039;-87
2023/02/13 11:03:27;;;;;;;15.95;7.85;;;2.20;99.90;;;;;;4978098;28;20046;-88
2023/02/13 11:05:55;;;;;;;17.15;8.95;;;2.20;99.90;;;;;;4987151;28;20026;-88
2023/02/13 11:08:21;;;;;;;18.33;7.40;;;2.20;99.90;;;;;;4974464;28;20057;-88
2023/02/13 11:10:46;;;;;;;17.60;8.32;;;2.10;99.90;;;;;;4983263;28;20543;-88
2023/02/13 11:13:21;;;;;;;20.67;9.13;;;2.20;99.90;;;;;;4982304;28;20061;-87
2023/02/13 11:16:02;;;;;;;16.00;8.80;;;2.20;99.90;;;;;;4980785;28;20058;-86
2023/02/13 11:18:32;;;;;;;20.33;8.77;;;2.20;99.90;;;;;;4978240;28;20118;-88
2023/02/13 11:21:30;;;;;;;19.17;8.07;;;2.20;99.90;;;;;;4985782;28;20042;-87
2023/02/13 11:23:56;;;;;;;17.95;9.23;;;2.20;99.90;;;;;;4986761;28;20053;-89
2023/02/13 11:26:28;;;;;;;18.20;9.20;;;2.10;99.90;;;;;;4980809;28;20035;-89
2023/02/13 11:28:56;;;;;;;17.73;8.68;;;2.20;99.90;;;;;;4994993;28;20574;-89
2023/02/13 11:31:31;;;;;;;20.55;9.77;;;2.20;99.90;;;;;;4980193;28;20044;-87
2023/02/13 11:33:58;;;;;;;20.55;9.60;;;2.20;99.90;;;;;;4984506;28;20038;-87
2023/02/13 11:36:27;;;;;;;14.88;8.65;;;2.30;99.90;;;;;;4990450;28;20077;-87
2023/02/13 11:39:16;;;;;;;15.55;7.90;;;2.30;99.90;;;;;;4982457;28;20486;-89
2023/02/13 11:41:44;;;;;;;18.58;7.65;;;2.40;99.90;;;;;;4979681;28;20074;-94
2023/02/13 11:44:29;;;;;;;17.43;8.07;;;2.50;99.90;;;;;;4978613;28;20050;-91
2023/02/13 11:47:04;;;;;;;38.65;13.73;;;2.50;99.90;;;;;;4972143;28;20035;-88
2023/02/13 11:49:32;;;;;;;31.05;12.23;;;2.60;99.90;;;;;;4996441;28;20062;-87
2023/02/13 11:52:23;;;;;;;23.02;9.65;;;2.50;99.90;;;;;;4999178;28;20034;-87
2023/02/13 11:55:03;;;;;;;20.45;9.27;;;2.40;99.90;;;;;;4979165;28;20077;-86
2023/02/13 11:57:34;;;;;;;21.60;11.23;;;2.40;99.90;;;;;;4982200;28;20066;-86
2023/02/13 12:00:25;;;;;;;15.57;7.55;;;2.40;99.90;;;;;;4982688;28;20559;-87
2023/02/13 12:02:51;;;;;;;12.25;5.95;;;2.40;99.90;;;;;;4987755;28;20077;-86
2023/02/13 12:05:25;;;;;;;18.08;9.10;;;2.50;99.90;;;;;;4980338;28;20030;-84
2023/02/13 12:07:54;;;;;;;18.42;8.50;;;2.60;99.90;;;;;;4976109;28;20023;-86
2023/02/13 12:10:25;;;;;;;19.98;8.70;;;2.60;99.90;;;;;;4985040;28;20085;-85
2023/02/13 12:12:58;;;;;;;19.38;8.35;;;2.50;99.90;;;;;;4978061;28;20097;-87
2023/02/13 12:15:30;;;;;;;15.55;8.10;;;2.40;99.90;;;;;;4979941;28;20058;-86
2023/02/13 12:18:07;;;;;;;20.70;9.27;;;2.40;99.90;;;;;;4986639;28;20060;-87
2023/02/13 12:21:00;;;;;;;15.50;8.35;;;2.40;99.90;;;;;;4979985;28;20684;-90
2023/02/13 12:24:02;;;;;;;19.58;8.68;;;2.30;99.90;;;;;;4961462;28;20161;-89
2023/02/13 12:26:37;;;;;;;18.60;9.15;;;2.30;99.90;;;;;;4975911;28;20038;-85
2023/02/13 12:29:27;;;;;;;16.55;8.52;;;2.20;99.90;;;;;;4981598;28;20038;-86
2023/02/13 12:32:24;;;;;;;17.27;7.82;;;2.10;99.90;;;;;;4974299;28;20039;-85
2023/02/13 12:35:02;;;;;;;14.98;8.50;;;2.10;99.90;;;;;;4959056;28;20495;-87
2023/02/13 12:37:43;;;;;;;15.70;9.18;;;2.00;99.90;;;;;;4980838;28;20050;-86
2023/02/13 12:40:46;;;;;;;19.67;9.25;;;2.00;99.90;;;;;;4974643;28;20034;-85
2023/02/13 12:43:45;;;;;;;21.20;9.32;;;2.10;99.90;;;;;;4987666;28;20034;-86
2023/02/13 12:46:46;;;;;;;21.27;9.80;;;2.10;99.90;;;;;;4986794;28;20105;-85
2023/02/13 12:49:23;;;;;;;21.67;9.52;;;2.10;99.90;;;;;;4968563;28;20042;-86
2023/02/13 12:52:13;;;;;;;23.70;11.05;;;2.10;99.90;;;;;;4979846;28;20065;-85
2023/02/13 12:55:13;;;;;;;25.58;11.27;;;2.30;99.90;;;;;;4980189;28;20030;-85
2023/02/13 12:57:58;;;;;;;20.77;9.32;;;2.30;99.90;;;;;;4961257;28;20100;-85
2023/02/13 13:00:49;;;;;;;21.83;10.75;;;2.30;99.90;;;;;;4983045;28;20434;-86
2023/02/13 13:03:36;;;;;;;18.95;10.02;;;2.30;99.90;;;;;;4981307;28;20497;-86
2023/02/13 13:06:29;;;;;;;52.20;24.90;;;2.40;99.90;;;;;;4985051;28;20031;-86
2023/02/13 13:09:23;;;;;;;22.85;11.13;;;2.50;99.90;;;;;;4970425;28;20093;-85
2023/02/13 13:12:08;;;;;;;23.95;11.18;;;2.60;99.90;;;;;;4983085;28;20066;-86
2023/02/13 13:14:47;;;;;;;24.25;12.18;;;2.60;99.90;;;;;;4981374;28;20388;-85
2023/02/13 13:17:42;;;;;;;22.02;10.25;;;2.50;99.90;;;;;;4972701;28;20031;-85
2023/02/13 13:20:13;;;;;;;18.30;10.30;;;2.50;99.90;;;;;;4967562;28;20073;-85
2023/02/13 13:23:13;;;;;;;23.52;10.77;;;2.50;99.90;;;;;;4968493;28;20041;-85
2023/02/13 13:25:47;;;;;;;15.85;9.00;;;2.50;99.90;;;;;;4976933;28;20507;-85
2023/02/13 13:28:23;;;;;;;22.60;10.73;;;2.50;99.90;;;;;;4998925;28;20034;-85
2023/02/13 13:30:49;;;;;;;20.60;10.00;;;2.60;99.90;;;;;;4991173;28;20118;-85
2023/02/13 13:33:16;;;;;;;16.98;9.63;;;2.60;99.90;;;;;;4984102;28;20039;-85
2023/02/13 13:35:49;;;;;;;31.23;12.32;;;2.60;99.90;;;;;;4986254;28;20086;-85
2023/02/13 13:38:37;;;;;;;21.17;10.07;;;2.60;99.90;;;;;;4982049;28;20057;-85
2023/02/13 13:41:05;;;;;;;83.72;30.20;;;2.70;99.90;;;;;;4983888;28;20041;-85
2023/02/13 13:44:08;;;;;;;24.75;11.57;;;2.70;99.90;;;;;;4981061;28;20108;-85
2023/02/13 13:46:55;;;;;;;20.92;10.10;;;2.80;99.90;;;;;;4992021;28;20057;-84
2023/02/13 13:49:42;;;;;;;21.38;9.98;;;2.80;99.90;;;;;;4983039;28;20069;-85
2023/02/13 13:52:18;;;;;;;19.73;11.02;;;2.90;99.90;;;;;;4984145;28;20085;-85